Time;durP1;ratioP1;P1;durP2;ratioP2;P2;SDS_P1;SDS_P2;PMS_P1;PMS_P2;Temp;Humidity;BMP_temperature;BMP_pressure;BME280_temperature;BME280_humidity;BME280_pressure;Samples;Min_cycle;Max_cycle;Signal;HPM_P1;HPM_P2
2023/09/28 00:02:58;;;;;;;6.60;0.98;;;;;;;23.40;nan;98718.72;7388763;19;20044;-79
2023/09/28 00:05:24;;;;;;;0.63;0.55;;;;;;;26.79;nan;98716.13;7387067;19;20023;-80
2023/09/28 00:07:50;;;;;;;0.70;0.30;;;;;;;25.85;nan;98712.63;7391121;19;20014;-80
2023/09/28 00:10:17;;;;;;;0.00;0.00;;;;;;;28.80;nan;98718.44;7390484;19;20026;-80
2023/09/28 00:12:46;;;;;;;0.00;0.00;;;;;;;30.96;nan;98719.94;7389368;19;20018;-79
2023/09/28 00:15:13;;;;;;;0.03;0.03;;;;;;;28.98;nan;98708.00;7386210;19;20023;-79
2023/09/28 00:17:40;;;;;;;2.08;0.40;;;;;;;26.83;nan;98712.81;7397359;19;20019;-80
2023/09/28 00:20:17;;;;;;;1.55;0.45;;;;;;;29.60;nan;98719.31;7396788;19;20359;-80
2023/09/28 00:22:45;;;;;;;2.83;0.40;;;;;;;22.35;nan;98732.94;7397581;19;20015;-79
2023/09/28 00:25:11;;;;;;;0.40;0.40;;;;;;;18.22;nan;98745.38;7394019;19;20452;-79
2023/09/28 00:27:38;;;;;;;0.00;0.00;;;;;;;19.18;nan;98744.84;7399694;19;20489;-79
2023/09/28 00:30:09;;;;;;;3.75;0.55;;;;;;;19.52;nan;98750.94;7397171;19;20045;-79
2023/09/28 00:32:35;;;;;;;1.33;0.10;;;;;;;20.05;nan;98748.88;7396424;19;20082;-79
2023/09/28 00:35:04;;;;;;;0.03;0.03;;;;;;;33.36;nan;98736.25;7395732;19;20023;-80
2023/09/28 00:37:33;;;;;;;0.08;0.08;;;;;;;32.27;nan;98737.50;7399484;19;20043;-80
2023/09/28 00:39:59;;;;;;;0.10;0.10;;;;;;;36.99;nan;98734.94;7394733;19;20018;-80
2023/09/28 00:42:28;;;;;;;0.10;0.00;;;;;;;42.85;nan;98739.44;7396795;19;20341;-80
2023/09/28 00:44:54;;;;;;;3.92;0.30;;;;;;;39.67;nan;98737.19;7394416;19;20350;-79
2023/09/28 00:47:20;;;;;;;0.03;0.00;;;;;;;34.02;nan;98738.09;7397461;19;20484;-80
2023/09/28 00:49:47;;;;;;;0.00;0.00;;;;;;;28.14;nan;98761.84;7389831;19;20021;-80
2023/09/28 00:52:16;;;;;;;0.10;0.10;;;;;;;24.96;nan;98771.88;7389226;19;20051;-79
2023/09/28 00:54:45;;;;;;;0.00;0.00;;;;;;;24.03;nan;98767.72;7388735;19;20045;-80
2023/09/28 00:57:12;;;;;;;0.98;0.10;;;;;;;37.33;nan;98760.41;7391513;19;20093;-79
2023/09/28 00:59:38;;;;;;;0.00;0.00;;;;;;;36.58;nan;98760.72;7389855;19;20027;-80
2023/09/28 01:02:04;;;;;;;0.30;0.30;;;;;;;24.37;nan;98791.59;7389109;19;20019;-80
2023/09/28 01:04:30;;;;;;;0.35;0.10;;;;;;;26.50;nan;98787.03;7393196;19;20022;-80
2023/09/28 01:06:56;;;;;;;0.10;0.10;;;;;;;28.61;nan;98788.28;7395490;19;20107;-80
2023/09/28 01:09:24;;;;;;;0.13;0.13;;;;;;;27.82;nan;98797.06;7393001;19;20491;-79
2023/09/28 01:11:52;;;;;;;0.32;0.32;;;;;;;37.37;nan;98789.56;7394447;19;20006;-79
2023/09/28 01:14:19;;;;;;;0.65;0.17;;;;;;;31.02;nan;98797.88;7391707;19;20070;-79
2023/09/28 01:16:45;;;;;;;0.35;0.20;;;;;;;30.21;nan;98803.72;7392529;19;20082;-79
2023/09/28 01:19:11;;;;;;;0.10;0.10;;;;;;;26.90;nan;98812.59;7391387;19;20014;-79
2023/09/28 01:21:38;;;;;;;0.22;0.22;;;;;;;37.19;nan;98801.47;7393269;19;20018;-79
2023/09/28 01:24:04;;;;;;;0.30;0.30;;;;;;;42.06;nan;98793.44;7392057;19;20010;-79
2023/09/28 01:26:30;;;;;;;0.63;0.28;;;;;;;43.67;nan;98787.78;7397290;19;20010;-79
2023/09/28 01:28:57;;;;;;;1.85;0.55;;;;;;;44.35;nan;98792.66;7391402;19;20613;-79
2023/09/28 01:31:24;;;;;;;0.00;0.00;;;;;;;44.69;nan;98783.66;7392155;19;20011;-79
2023/09/28 01:33:50;;;;;;;2.20;0.10;;;;;;;45.85;nan;98781.19;7391747;19;20496;-79
2023/09/28 01:36:18;;;;;;;0.10;0.05;;;;;;;46.03;nan;98778.03;7393534;19;20021;-79
2023/09/28 01:39:07;;;;;;;5.50;0.28;;;;;;;46.05;nan;98792.00;7391399;19;20019;-79
2023/09/28 01:41:34;;;;;;;0.73;0.40;;;;;;;46.75;nan;98782.22;7391705;19;20071;-80
2023/09/28 01:44:01;;;;;;;0.00;0.00;;;;;;;46.70;nan;98786.00;7392399;19;20285;-79
2023/09/28 01:46:27;;;;;;;0.10;0.10;;;;;;;28.95;nan;98823.94;7396377;19;20458;-80
2023/09/28 01:48:53;;;;;;;2.17;0.43;;;;;;;28.41;nan;98819.31;7394023;19;20018;-79
2023/09/28 01:51:19;;;;;;;0.03;0.03;;;;;;;43.83;nan;98811.22;7395850;19;20424;-79
2023/09/28 01:53:46;;;;;;;0.00;0.00;;;;;;;45.45;nan;98829.41;7391414;19;20010;-79
2023/09/28 01:56:12;;;;;;;4.57;1.17;;;;;;;34.87;nan;98840.19;7391848;19;20029;-79
2023/09/28 01:58:38;;;;;;;0.22;0.15;;;;;;;21.47;nan;98872.75;7393694;19;20018;-79
2023/09/28 02:01:04;;;;;;;0.57;0.35;;;;;;;21.03;nan;98880.84;7392718;19;20022;-80
2023/09/28 02:03:30;;;;;;;0.20;0.20;;;;;;;21.31;nan;98893.97;7394012;19;20464;-80
2023/09/28 02:05:56;;;;;;;0.85;0.22;;;;;;;19.09;nan;98904.19;7392514;19;20022;-79
2023/09/28 02:08:22;;;;;;;1.55;0.57;;;;;;;18.96;nan;98904.31;7396062;19;20644;-79
2023/09/28 02:10:48;;;;;;;2.40;0.52;;;;;;;18.04;nan;98907.75;7393803;19;20324;-79
2023/09/28 02:13:14;;;;;;;0.63;0.47;;;;;;;17.73;nan;98920.06;7391531;19;20056;-80
2023/09/28 02:15:43;;;;;;;3.65;0.73;;;;;;;18.45;nan;98929.56;7392312;19;20024;-80
2023/09/28 02:18:09;;;;;;;0.00;0.00;;;;;;;17.61;nan;98932.09;7396268;19;20014;-80
2023/09/28 02:20:36;;;;;;;0.90;0.40;;;;;;;16.92;nan;98929.69;7396388;19;20021;-79
2023/09/28 02:23:02;;;;;;;0.20;0.10;;;;;;;18.33;nan;98938.81;7393206;19;20023;-80
2023/09/28 02:25:30;;;;;;;6.78;0.20;;;;;;;18.71;nan;98951.94;7392173;19;20022;-80
2023/09/28 02:27:56;;;;;;;0.68;0.10;;;;;;;17.52;nan;98955.09;7391237;19;20015;-79
2023/09/28 02:30:23;;;;;;;6.13;0.50;;;;;;;20.03;nan;98968.38;7395538;19;20014;-79
2023/09/28 02:32:50;;;;;;;1.25;0.38;;;;;;;21.10;nan;98954.47;7390900;19;20018;-79
2023/09/28 02:35:17;;;;;;;2.75;0.13;;;;;;;20.14;nan;98965.22;7391233;19;20653;-80
2023/09/28 02:37:45;;;;;;;16.13;0.57;;;;;;;26.99;nan;98957.53;7393043;19;20046;-80
2023/09/28 02:40:13;;;;;;;0.10;0.10;;;;;;;19.27;nan;98965.28;7387646;19;20015;-81
2023/09/28 02:42:40;;;;;;;0.55;0.25;;;;;;;20.99;nan;98960.50;7394925;19;20033;-81
2023/09/28 02:45:11;;;;;;;3.50;0.45;;;;;;;19.86;nan;98962.50;7391762;19;20025;-80
2023/09/28 02:47:40;;;;;;;5.85;0.38;;;;;;;19.33;nan;98965.88;7395768;19;20019;-80
2023/09/28 02:50:09;;;;;;;0.35;0.35;;;;;;;16.79;nan;98988.75;7393227;19;20028;-79
2023/09/28 02:52:37;;;;;;;0.50;0.35;;;;;;;17.39;nan;98992.44;7392173;19;20046;-80
2023/09/28 02:55:07;;;;;;;10.05;0.50;;;;;;;17.39;nan;99000.88;7390437;19;20019;-80
2023/09/28 02:57:35;;;;;;;0.00;0.00;;;;;;;16.79;nan;99000.00;7391087;19;20032;-81
2023/09/28 03:00:11;;;;;;;0.75;0.05;;;;;;;22.92;nan;99013.00;7390568;19;20021;-79
2023/09/28 03:02:38;;;;;;;0.10;0.10;;;;;;;39.02;nan;98991.78;7390554;19;20459;-80
2023/09/28 03:05:04;;;;;;;0.00;0.00;;;;;;;39.64;nan;98995.16;7392603;19;20002;-80
2023/09/28 03:07:31;;;;;;;0.43;0.32;;;;;;;43.38;nan;98989.41;7392147;19;20329;-80
2023/09/28 03:09:57;;;;;;;0.82;0.10;;;;;;;39.64;nan;98998.06;7390650;19;20038;-80
2023/09/28 03:12:23;;;;;;;1.20;0.45;;;;;;;40.49;nan;98994.34;7390871;19;20496;-80
2023/09/28 03:14:49;;;;;;;0.82;0.38;;;;;;;40.52;nan;98995.13;7389775;19;20018;-80
2023/09/28 03:17:15;;;;;;;4.90;0.30;;;;;;;35.59;nan;98999.06;7394826;19;20035;-80
2023/09/28 03:19:41;;;;;;;5.60;0.22;;;;;;;25.61;nan;99030.34;7391442;19;20035;-79
2023/09/28 03:22:07;;;;;;;1.25;0.63;;;;;;;21.76;nan;99046.81;7391852;19;20015;-80
2023/09/28 03:24:33;;;;;;;0.00;0.00;;;;;;;19.53;nan;99032.81;7391109;19;20023;-80
2023/09/28 03:27:00;;;;;;;0.20;0.20;;;;;;;19.37;nan;99011.47;7392621;19;20031;-79
2023/09/28 03:29:26;;;;;;;1.27;0.57;;;;;;;18.85;nan;99020.31;7389530;19;20021;-80
2023/09/28 03:31:52;;;;;;;0.10;0.10;;;;;;;20.83;nan;99021.28;7390041;19;20019;-80
2023/09/28 03:34:18;;;;;;;0.80;0.30;;;;;;;19.77;nan;99013.91;7387957;19;20026;-79
2023/09/28 03:36:45;;;;;;;14.27;0.95;;;;;;;19.78;nan;99018.22;7390408;19;20019;-79
2023/09/28 03:39:11;;;;;;;7.43;0.77;;;;;;;19.57;nan;99029.63;7389478;19;20022;-80
2023/09/28 03:41:38;;;;;;;6.22;0.55;;;;;;;38.94;nan;99002.53;7389475;19;20018;-79
2023/09/28 03:44:04;;;;;;;0.10;0.00;;;;;;;42.89;nan;98999.53;7388491;19;20039;-79
2023/09/28 03:46:30;;;;;;;1.35;0.03;;;;;;;27.86;nan;99034.84;7390824;19;20482;-80
2023/09/28 03:48:56;;;;;;;1.17;0.40;;;;;;;20.90;nan;99036.72;7389891;19;20019;-80
2023/09/28 03:51:22;;;;;;;1.88;0.40;;;;;;;24.35;nan;99036.22;7399828;19;20011;-80
2023/09/28 03:53:48;;;;;;;0.00;0.00;;;;;;;18.95;nan;99038.25;7395099;19;20346;-79
2023/09/28 03:56:15;;;;;;;0.10;0.10;;;;;;;17.79;nan;99038.97;7395815;19;20014;-79
2023/09/28 03:58:41;;;;;;;1.45;0.30;;;;;;;17.24;nan;99054.91;7393897;19;20480;-80
2023/09/28 04:01:07;;;;;;;0.65;0.65;;;;;;;18.17;nan;99045.03;7394219;19;20010;-79
2023/09/28 04:03:35;;;;;;;0.15;0.15;;;;;;;33.79;nan;99039.06;7393305;19;20018;-79
2023/09/28 04:06:01;;;;;;;0.52;0.22;;;;;;;23.02;nan;99070.69;7393563;19;20070;-80
2023/09/28 04:08:27;;;;;;;2.15;0.30;;;;;;;20.25;nan;99087.19;7402114;19;20018;-79
2023/09/28 04:10:55;;;;;;;0.45;0.38;;;;;;;24.94;nan;99068.00;7398182;19;20014;-80
2023/09/28 04:13:21;;;;;;;0.38;0.20;;;;;;;25.46;nan;99083.47;7395931;19;20019;-79
2023/09/28 04:15:48;;;;;;;0.10;0.10;;;;;;;33.81;nan;99082.53;7393783;19;20014;-80
2023/09/28 04:18:14;;;;;;;0.20;0.20;;;;;;;20.28;nan;99122.84;7399048;19;20021;-80
2023/09/28 04:20:41;;;;;;;6.05;1.23;;;;;;;18.92;nan;99121.19;7397701;19;20090;-79
2023/09/28 04:23:08;;;;;;;9.35;1.02;;;;;;;22.49;nan;99122.13;7397627;19;20022;-79
2023/09/28 04:25:35;;;;;;;0.10;0.10;;;;;;;19.17;nan;99133.63;7394905;19;20018;-80
2023/09/28 04:28:01;;;;;;;5.35;0.93;;;;;;;18.26;nan;99134.03;7399526;19;20015;-80
2023/09/28 04:30:27;;;;;;;1.42;0.52;;;;;;;17.98;nan;99137.41;7397512;19;20080;-79
2023/09/28 04:32:54;;;;;;;1.42;0.75;;;;;;;17.84;nan;99133.88;7396108;19;20030;-79
2023/09/28 04:35:20;;;;;;;7.97;1.50;;;;;;;17.69;nan;99124.44;7393822;19;20010;-80
2023/09/28 04:37:50;;;;;;;2.97;1.08;;;;;;;18.72;nan;99117.06;7400186;19;20031;-79
2023/09/28 04:40:16;;;;;;;0.10;0.10;;;;;;;18.23;nan;99121.78;7396885;19;20090;-79
2023/09/28 04:42:42;;;;;;;0.95;0.25;;;;;;;20.79;nan;99117.13;7396449;19;20014;-79
2023/09/28 04:45:10;;;;;;;4.68;0.93;;;;;;;22.25;nan;99115.06;7395181;19;20051;-79
2023/09/28 04:47:36;;;;;;;0.00;0.00;;;;;;;31.41;nan;99094.81;7400775;19;20014;-79
2023/09/28 04:50:03;;;;;;;0.90;0.35;;;;;;;33.43;nan;99087.34;7396212;19;20484;-80
2023/09/28 04:52:29;;;;;;;2.35;0.47;;;;;;;35.60;nan;99081.69;7396414;19;20018;-80
2023/09/28 04:54:55;;;;;;;2.55;0.47;;;;;;;39.75;nan;99084.28;7392976;19;20051;-79
2023/09/28 04:57:21;;;;;;;4.00;0.82;;;;;;;42.63;nan;99088.00;7398181;19;20030;-79
2023/09/28 04:59:48;;;;;;;0.10;0.00;;;;;;;37.42;nan;99099.13;7394618;19;20019;-80
2023/09/28 05:02:14;;;;;;;0.82;0.20;;;;;;;41.53;nan;99100.16;7392652;19;20037;-79
2023/09/28 05:04:40;;;;;;;0.10;0.10;;;;;;;44.14;nan;99096.66;7394842;19;20073;-80
2023/09/28 05:07:06;;;;;;;0.10;0.10;;;;;;;44.53;nan;99100.34;7397861;19;20039;-79
2023/09/28 05:09:33;;;;;;;0.10;0.00;;;;;;;31.59;nan;99131.69;7393478;19;20022;-79
2023/09/28 05:12:01;;;;;;;0.20;0.20;;;;;;;43.54;nan;99115.59;7393755;19;20018;-79
2023/09/28 05:14:27;;;;;;;0.22;0.22;;;;;;;25.96;nan;99143.56;7393412;19;20104;-79
2023/09/28 05:16:56;;;;;;;0.00;0.00;;;;;;;20.81;nan;99156.94;7394591;19;20753;-79
2023/09/28 05:19:22;;;;;;;0.28;0.28;;;;;;;19.57;nan;99154.69;7392964;19;20041;-79
2023/09/28 05:21:49;;;;;;;0.98;0.68;;;;;;;19.02;nan;99167.38;7392764;19;20018;-79
2023/09/28 05:24:15;;;;;;;1.77;0.47;;;;;;;18.84;nan;99179.63;7391641;19;20468;-80
2023/09/28 05:26:42;;;;;;;2.08;0.65;;;;;;;18.99;nan;99168.50;7395929;19;20041;-79
2023/09/28 05:29:08;;;;;;;0.10;0.10;;;;;;;18.11;nan;99177.63;7393853;19;20011;-80
2023/09/28 05:31:35;;;;;;;7.63;1.08;;;;;;;18.25;nan;99175.53;7393585;19;20016;-79
2023/09/28 05:34:01;;;;;;;7.32;0.32;;;;;;;19.16;nan;99171.66;7393227;19;20014;-79
2023/09/28 05:36:27;;;;;;;4.60;1.08;;;;;;;18.47;nan;99180.72;7390753;19;20026;-79
2023/09/28 05:38:53;;;;;;;4.47;0.63;;;;;;;18.38;nan;99172.69;7392121;19;20021;-79
2023/09/28 05:41:19;;;;;;;1.08;0.45;;;;;;;24.61;nan;99174.97;7392208;19;20026;-79
2023/09/28 05:43:46;;;;;;;0.10;0.10;;;;;;;19.81;nan;99197.97;7391134;19;20007;-80
2023/09/28 05:46:12;;;;;;;1.10;0.75;;;;;;;18.43;nan;99190.78;7392352;19;20018;-79
2023/09/28 05:48:39;;;;;;;3.45;0.40;;;;;;;18.17;nan;99186.69;7393256;19;20031;-79
2023/09/28 05:51:05;;;;;;;3.45;1.65;;;;;;;17.80;nan;99198.19;7399182;19;20014;-79
2023/09/28 05:53:31;;;;;;;8.00;1.42;;;;;;;18.23;nan;99205.56;7393606;19;20015;-79
2023/09/28 05:55:57;;;;;;;1.70;1.10;;;;;;;18.25;nan;99202.97;7392660;19;20026;-79
2023/09/28 05:58:24;;;;;;;10.73;2.25;;;;;;;18.12;nan;99215.00;7397439;19;20043;-79
2023/09/28 06:00:50;;;;;;;16.73;1.42;;;;;;;17.67;nan;99220.72;7394540;19;20022;-79
2023/09/28 06:03:16;;;;;;;5.05;1.02;;;;;;;17.88;nan;99221.63;7394380;19;20025;-80
2023/09/28 06:05:42;;;;;;;6.55;0.47;;;;;;;18.40;nan;99214.44;7392009;19;20078;-79
2023/09/28 06:08:09;;;;;;;0.75;0.40;;;;;;;17.91;nan;99220.53;7392064;19;20022;-80
2023/09/28 06:10:37;;;;;;;4.68;0.95;;;;;;;17.86;nan;99210.16;7391606;19;20787;-79
2023/09/28 06:13:04;;;;;;;6.28;1.52;;;;;;;17.76;nan;99217.50;7392918;19;20043;-80
2023/09/28 06:15:30;;;;;;;0.65;0.47;;;;;;;19.27;nan;99212.97;7392251;19;20067;-80
2023/09/28 06:17:56;;;;;;;1.98;0.82;;;;;;;37.94;nan;99205.25;7396480;19;20416;-79
2023/09/28 06:20:22;;;;;;;1.10;0.63;;;;;;;31.14;nan;99218.53;7396496;19;20034;-80
2023/09/28 06:22:48;;;;;;;1.55;0.65;;;;;;;30.83;nan;99226.78;7393588;19;20011;-80
2023/09/28 06:25:14;;;;;;;4.28;1.52;;;;;;;29.61;nan;99220.94;7391726;19;20026;-80
2023/09/28 06:27:41;;;;;;;1.00;0.40;;;;;;;30.13;nan;99220.53;7394078;19;20016;-80
2023/09/28 06:30:07;;;;;;;1.00;0.65;;;;;;;31.53;nan;99212.00;7390343;19;20010;-80
2023/09/28 06:32:34;;;;;;;1.88;0.95;;;;;;;41.87;nan;99204.38;7391089;19;20014;-80
2023/09/28 06:35:01;;;;;;;0.40;0.17;;;;;;;37.96;nan;99202.41;7391314;19;20022;-80
2023/09/28 06:37:27;;;;;;;0.90;0.50;;;;;;;31.08;nan;99228.94;7395151;19;20037;-79
2023/09/28 06:39:54;;;;;;;3.03;0.35;;;;;;;33.58;nan;99228.88;7391283;19;20472;-80
2023/09/28 06:42:20;;;;;;;0.55;0.50;;;;;;;29.14;nan;99245.94;7390689;19;20011;-80
2023/09/28 06:44:47;;;;;;;1.17;0.52;;;;;;;28.54;nan;99251.31;7391416;19;20550;-80
2023/09/28 06:47:13;;;;;;;1.30;0.90;;;;;;;28.34;nan;99267.16;7394813;19;20014;-80
2023/09/28 06:49:39;;;;;;;0.80;0.47;;;;;;;28.02;nan;99276.44;7391946;19;20020;-80
2023/09/28 06:52:05;;;;;;;1.23;0.35;;;;;;;28.12;nan;99274.25;7392599;19;20487;-80
2023/09/28 06:54:32;;;;;;;1.42;0.35;;;;;;;28.02;nan;99279.28;7388500;19;20090;-80
2023/09/28 06:56:58;;;;;;;0.80;0.45;;;;;;;28.10;nan;99282.69;7390922;19;20014;-80
2023/09/28 06:59:24;;;;;;;1.10;0.30;;;;;;;28.57;nan;99277.25;7388840;19;20152;-80
2023/09/28 07:01:50;;;;;;;2.60;0.68;;;;;;;28.82;nan;99283.25;7388735;19;20083;-81
2023/09/28 07:04:17;;;;;;;0.10;0.00;;;;;;;29.73;nan;99272.63;7387938;19;20507;-80
2023/09/28 07:06:43;;;;;;;0.30;0.10;;;;;;;29.91;nan;99274.50;7390520;19;20038;-80
2023/09/28 07:09:09;;;;;;;1.83;0.88;;;;;;;29.72;nan;99271.84;7392032;19;20026;-80
2023/09/28 07:11:35;;;;;;;0.25;0.05;;;;;;;28.73;nan;99256.16;7390281;19;20551;-80
2023/09/28 07:14:01;;;;;;;7.78;0.63;;;;;;;36.55;nan;99249.53;7390153;19;20022;-80
2023/09/28 07:16:27;;;;;;;0.65;0.57;;;;;;;44.06;nan;99232.44;7387685;19;20018;-80
2023/09/28 07:18:53;;;;;;;0.40;0.28;;;;;;;44.75;nan;99235.47;7392593;19;20077;-80
2023/09/28 07:21:20;;;;;;;0.32;0.15;;;;;;;42.60;nan;99241.78;7392072;19;20078;-80
2023/09/28 07:23:46;;;;;;;2.45;0.68;;;;;;;30.54;nan;99258.16;7392114;19;20350;-80
2023/09/28 07:26:16;;;;;;;0.10;0.00;;;;;;;42.24;nan;99247.25;7389321;19;20341;-80
2023/09/28 07:28:43;;;;;;;0.00;0.00;;;;;;;44.03;nan;99248.59;7391621;19;20082;-80
2023/09/28 07:31:11;;;;;;;0.20;0.20;;;;;;;42.00;nan;99241.84;7391989;19;20118;-80
2023/09/28 07:33:39;;;;;;;0.10;0.00;;;;;;;44.80;nan;99228.16;7393363;19;20082;-81
2023/09/28 07:36:05;;;;;;;3.92;0.20;;;;;;;45.60;nan;99242.72;7390185;19;20054;-80
2023/09/28 07:38:32;;;;;;;0.10;0.00;;;;;;;45.83;nan;99244.09;7393724;19;20010;-80
2023/09/28 07:41:02;;;;;;;0.80;0.75;;;;;;;45.58;nan;99251.56;7389038;19;20015;-80
2023/09/28 07:43:29;;;;;;;0.65;0.63;;;;;;;45.62;nan;99254.50;7389998;19;20010;-80
2023/09/28 07:45:55;;;;;;;0.90;0.35;;;;;;;45.62;nan;99266.25;7389456;19;20031;-80
2023/09/28 07:48:22;;;;;;;0.32;0.30;;;;;;;30.96;nan;99289.41;7392722;19;20018;-80
2023/09/28 07:50:48;;;;;;;0.55;0.47;;;;;;;43.60;nan;99276.22;7394770;19;20032;-80
2023/09/28 07:53:14;;;;;;;2.20;0.38;;;;;;;45.24;nan;99275.16;7392448;19;20018;-80
2023/09/28 07:55:40;;;;;;;0.25;0.10;;;;;;;34.04;nan;99302.50;7389252;19;20026;-80
2023/09/28 07:58:07;;;;;;;0.40;0.17;;;;;;;47.13;nan;99297.78;7394317;19;20026;-80
2023/09/28 08:00:33;;;;;;;0.08;0.05;;;;;;;49.59;nan;99300.28;7388768;19;20015;-80
2023/09/28 08:03:00;;;;;;;3.30;0.32;;;;;;;29.22;nan;99323.94;7388680;19;20014;-80
2023/09/28 08:05:26;;;;;;;0.20;0.10;;;;;;;28.29;nan;99334.13;7386559;19;20163;-80
2023/09/28 08:07:52;;;;;;;2.15;0.40;;;;;;;22.67;nan;99353.69;7392727;19;20018;-80
2023/09/28 08:10:18;;;;;;;0.63;0.30;;;;;;;21.80;nan;99361.81;7388070;19;20030;-80
2023/09/28 08:12:46;;;;;;;5.93;1.02;;;;;;;21.26;nan;99357.38;7389842;19;20018;-80
2023/09/28 08:15:12;;;;;;;1.00;0.17;;;;;;;22.72;nan;99357.66;7387888;19;20022;-80
2023/09/28 08:17:40;;;;;;;2.38;1.20;;;;;;;25.29;nan;99354.38;7391275;19;20052;-79
2023/09/28 08:20:07;;;;;;;0.35;0.20;;;;;;;28.27;nan;99359.78;7390788;19;20018;-80
2023/09/28 08:22:35;;;;;;;2.08;0.38;;;;;;;28.25;nan;99365.38;7388272;19;20082;-79
2023/09/28 08:25:07;;;;;;;0.32;0.20;;;;;;;31.12;nan;99350.72;7386880;19;20465;-79
2023/09/28 08:27:33;;;;;;;0.22;0.22;;;;;;;20.89;nan;99364.38;7389961;19;20023;-79
2023/09/28 08:29:59;;;;;;;0.10;0.10;;;;;;;18.81;nan;99369.75;7388941;19;20048;-79
2023/09/28 08:32:26;;;;;;;4.47;1.00;;;;;;;17.17;nan;99362.25;7389288;19;20023;-79
2023/09/28 08:34:52;;;;;;;0.90;0.50;;;;;;;16.44;nan;99381.28;7386547;19;20047;-80
2023/09/28 08:37:19;;;;;;;1.42;0.75;;;;;;;16.33;nan;99377.84;7392281;19;20022;-82
2023/09/28 08:39:45;;;;;;;0.35;0.32;;;;;;;16.41;nan;99371.13;7396977;19;20353;-82
2023/09/28 08:42:15;;;;;;;0.15;0.10;;;;;;;16.50;nan;99379.19;7394751;19;20377;-80
2023/09/28 08:44:41;;;;;;;1.25;0.10;;;;;;;16.49;nan;99388.91;7394434;19;20019;-80
2023/09/28 08:47:16;;;;;;;6.53;0.47;;;;;;;16.57;nan;99384.25;7397958;19;20011;-80
2023/09/28 08:49:50;;;;;;;1.85;0.43;;;;;;;16.63;nan;99396.19;7395249;19;20483;-82
2023/09/28 08:52:17;;;;;;;0.10;0.10;;;;;;;16.51;nan;99414.47;7394374;19;20018;-82
2023/09/28 08:54:43;;;;;;;2.05;0.50;;;;;;;16.66;nan;99423.25;7393680;19;20036;-84
2023/09/28 08:57:11;;;;;;;0.35;0.35;;;;;;;17.18;nan;99422.13;7396701;19;20019;-83
2023/09/28 08:59:39;;;;;;;0.22;0.22;;;;;;;16.87;nan;99417.16;7393957;19;20018;-83
2023/09/28 09:02:06;;;;;;;0.52;0.20;;;;;;;16.49;nan;99421.88;7393766;19;20019;-83
2023/09/28 09:04:34;;;;;;;1.27;0.40;;;;;;;16.61;nan;99429.69;7391918;19;20014;-82
2023/09/28 09:07:04;;;;;;;0.85;0.30;;;;;;;16.53;nan;99417.50;7395368;19;20098;-85
2023/09/28 09:09:34;;;;;;;2.20;0.57;;;;;;;16.52;nan;99409.63;7396024;19;20357;-85
2023/09/28 09:12:05;;;;;;;0.20;0.20;;;;;;;16.36;nan;99425.31;7396794;19;20048;-85
2023/09/28 09:14:32;;;;;;;0.28;0.20;;;;;;;16.80;nan;99403.69;7392409;19;20006;-84
2023/09/28 09:16:58;;;;;;;0.30;0.30;;;;;;;16.57;nan;99395.50;7393757;19;20721;-85
2023/09/28 09:19:32;;;;;;;0.13;0.13;;;;;;;16.52;nan;99413.16;7394230;19;20026;-85
2023/09/28 09:21:58;;;;;;;8.77;1.10;;;;;;;16.15;nan;99421.44;7393557;19;20022;-85
2023/09/28 09:24:24;;;;;;;0.10;0.10;;;;;;;16.45;nan;99433.41;7393308;19;20667;-84
2023/09/28 09:26:56;;;;;;;2.20;0.35;;;;;;;16.19;nan;99457.66;7394777;19;20489;-84
2023/09/28 09:29:25;;;;;;;5.00;0.80;;;;;;;16.25;nan;99405.00;7394192;19;20078;-82
2023/09/28 09:31:51;;;;;;;3.47;1.15;;;;;;;16.56;nan;99424.91;7394512;19;20039;-82
2023/09/28 09:34:20;;;;;;;0.10;0.10;;;;;;;18.81;nan;99431.81;7392384;19;20022;-82
2023/09/28 09:36:51;;;;;;;0.68;0.20;;;;;;;17.40;nan;99430.25;7391495;19;20033;-82
2023/09/28 09:39:23;;;;;;;0.17;0.00;;;;;;;16.72;nan;99411.19;7391182;19;20048;-80
2023/09/28 09:41:49;;;;;;;2.67;0.43;;;;;;;18.82;nan;99407.94;7391200;19;20019;-83
2023/09/28 09:44:18;;;;;;;0.32;0.32;;;;;;;18.48;nan;99418.34;7392545;19;20018;-83
2023/09/28 09:46:49;;;;;;;2.28;0.20;;;;;;;23.33;nan;99402.34;7396711;19;20486;-84
2023/09/28 09:49:18;;;;;;;2.70;0.28;;;;;;;18.44;nan;99406.59;7393953;19;20006;-84
2023/09/28 09:51:46;;;;;;;0.55;0.32;;;;;;;16.94;nan;99427.78;7393656;19;20025;-84
2023/09/28 09:54:14;;;;;;;0.43;0.20;;;;;;;16.16;nan;99411.72;7394371;19;20025;-85
2023/09/28 09:56:44;;;;;;;2.65;0.55;;;;;;;16.40;nan;99371.63;7393712;19;20504;-83
2023/09/28 09:59:17;;;;;;;0.10;0.10;;;;;;;17.93;nan;99389.78;7392614;19;20038;-83
2023/09/28 10:01:47;;;;;;;0.85;0.65;;;;;;;20.12;nan;99389.09;7392135;19;20484;-84
2023/09/28 10:04:18;;;;;;;1.45;0.60;;;;;;;18.25;nan;99394.63;7389642;19;20081;-80
2023/09/28 10:06:48;;;;;;;0.10;0.08;;;;;;;17.92;nan;99377.00;7393111;19;20030;-80
2023/09/28 10:09:20;;;;;;;0.75;0.75;;;;;;;18.47;nan;99397.09;7393242;19;20014;-80
2023/09/28 10:11:49;;;;;;;0.10;0.10;;;;;;;18.35;nan;99432.38;7393523;19;20070;-80
2023/09/28 10:14:18;;;;;;;0.63;0.52;;;;;;;18.50;nan;99393.16;7389969;19;20023;-80
2023/09/28 10:16:48;;;;;;;0.20;0.10;;;;;;;19.05;nan;99397.72;7391285;19;20019;-82
2023/09/28 10:19:19;;;;;;;1.55;0.40;;;;;;;17.73;nan;99404.47;7389802;19;20616;-80
2023/09/28 10:21:45;;;;;;;;;;;;;;;18.86;nan;99400.66;7390887;19;20022;-83
2023/09/28 10:24:13;;;;;;;8.38;0.63;;;;;;;18.86;nan;99419.66;7389274;19;19931;-84
2023/09/28 10:26:46;;;;;;;1.25;0.30;;;;;;;19.16;nan;99437.00;7393708;19;20022;-83
2023/09/28 10:29:20;;;;;;;3.40;0.45;;;;;;;17.94;nan;99444.84;7392646;19;20029;-84
2023/09/28 10:31:46;;;;;;;0.57;0.35;;;;;;;18.57;nan;99443.28;7392145;19;20511;-84
2023/09/28 10:34:22;;;;;;;2.40;0.80;;;;;;;19.05;nan;99440.06;7392247;19;20022;-81
2023/09/28 10:37:11;;;;;;;3.20;0.10;;;;;;;18.33;nan;99466.00;7391951;19;20086;-82
2023/09/28 10:39:38;;;;;;;0.50;0.50;;;;;;;21.68;nan;99459.88;7390447;19;20402;-83
2023/09/28 10:42:06;;;;;;;5.97;1.00;;;;;;;18.94;nan;99462.84;7389317;19;20007;-84
2023/09/28 10:44:32;;;;;;;7.22;0.80;;;;;;;21.19;nan;99431.72;7391246;19;20472;-85
2023/09/28 10:46:58;;;;;;;0.73;0.10;;;;;;;18.94;nan;99431.81;7395936;19;20454;-81
2023/09/28 10:49:26;;;;;;;0.75;0.30;;;;;;;18.53;nan;99449.28;7391051;19;20019;-83
2023/09/28 10:51:55;;;;;;;0.38;0.32;;;;;;;19.01;nan;99445.28;7391211;19;20365;-83
2023/09/28 10:54:24;;;;;;;0.15;0.15;;;;;;;18.62;nan;99453.72;7393429;19;20022;-83
2023/09/28 10:56:51;;;;;;;3.20;0.43;;;;;;;19.27;nan;99450.91;7394120;19;20025;-82
2023/09/28 10:59:18;;;;;;;0.40;0.40;;;;;;;18.99;nan;99445.06;7388554;19;20026;-83
2023/09/28 11:01:45;;;;;;;0.15;0.13;;;;;;;18.69;nan;99433.34;7386928;19;20017;-85
2023/09/28 11:04:12;;;;;;;1.75;0.50;;;;;;;18.78;nan;99410.31;7389069;19;20552;-83
2023/09/28 11:06:43;;;;;;;2.60;0.80;;;;;;;19.03;nan;99431.38;7390870;19;20038;-80
2023/09/28 11:09:10;;;;;;;0.93;0.40;;;;;;;19.09;nan;99454.59;7391132;19;20032;-80
2023/09/28 11:11:39;;;;;;;0.55;0.45;;;;;;;18.99;nan;99453.53;7391411;19;20011;-80
2023/09/28 11:14:05;;;;;;;2.33;0.38;;;;;;;19.05;nan;99450.59;7389777;19;20014;-79
2023/09/28 11:16:35;;;;;;;1.23;0.25;;;;;;;18.83;nan;99443.31;7389279;19;20021;-79
2023/09/28 11:19:01;;;;;;;1.45;0.75;;;;;;;18.20;nan;99452.63;7390124;19;20015;-80
2023/09/28 11:21:32;;;;;;;1.98;0.63;;;;;;;18.05;nan;99467.22;7392674;19;20484;-80
2023/09/28 11:23:58;;;;;;;3.20;0.25;;;;;;;18.70;nan;99469.47;7390051;19;20010;-80
2023/09/28 11:26:24;;;;;;;0.77;0.20;;;;;;;19.10;nan;99461.75;7389512;19;20038;-79
2023/09/28 11:28:52;;;;;;;2.70;0.40;;;;;;;19.37;nan;99418.09;7391576;19;20019;-80
2023/09/28 11:31:35;;;;;;;5.28;0.88;;;;;;;20.48;nan;99415.41;7387830;19;20056;-84
2023/09/28 11:34:03;;;;;;;0.15;0.15;;;;;;;19.58;nan;99426.59;7390363;19;20452;-82
2023/09/28 11:36:29;;;;;;;1.45;0.63;;;;;;;18.19;nan;99418.03;7387805;19;20018;-82
2023/09/28 11:38:55;;;;;;;1.60;0.40;;;;;;;17.97;nan;99432.53;7390669;19;20532;-83
2023/09/28 11:41:24;;;;;;;1.17;0.93;;;;;;;19.05;nan;99416.72;7386432;19;20101;-82
2023/09/28 11:43:53;;;;;;;3.50;0.80;;;;;;;19.08;nan;99370.47;7387731;19;20047;-82
2023/09/28 11:46:22;;;;;;;2.40;0.80;;;;;;;19.18;nan;99304.53;7386890;19;20473;-82
2023/09/28 11:49:16;;;;;;;4.43;0.77;;;;;;;20.30;nan;99377.56;7388015;19;20022;-82
2023/09/28 11:51:43;;;;;;;2.95;0.77;;;;;;;19.47;nan;99384.47;7390063;19;20022;-82
2023/09/28 11:54:12;;;;;;;1.08;0.85;;;;;;;19.46;nan;99408.41;7385965;19;20018;-82